Terminal Aerodrome Forecast
Issued by NWS

Home | Current Version | Previous Version | Text Only | Print | Product List | Glossary On
Versions: 1 2 3 4 5 6 7 8 9 10 11 12 13 14 15 16
000
FTUS42 KMHX 211134
TAFPGV
TAF
KPGV 211134Z 2112/2212 23006KT P6SM OVC007
     FM211400 23007KT P6SM SCT010 BKN150
     FM211800 25006KT P6SM SCT025 BKN120
     FM212100 15003KT P6SM -SHRA VCTS SCT025CB BKN040
     FM220300 20003KT P6SM SCT035 BKN200
     FM220800 21005KT P6SM SCT005 BKN200
      AMD LTD TO CLD VIS AND WIND=

USA.gov is the U.S. government's official web portal to all federal, state and local government web resources and services.